sensor_id;sensor_type;location;lat;lon;timestamp;temperature;humidity
10536;DHT22;5316;49.538;8.352;2023-07-31T09:46:30;23.20;9.70
10536;DHT22;5316;49.538;8.352;2023-07-31T09:49:05;23.20;1.00
10536;DHT22;5316;49.538;8.352;2023-07-31T09:51:33;23.20;1.00
10536;DHT22;5316;49.538;8.352;2023-07-31T09:54:09;23.10;99.90
10536;DHT22;5316;49.538;8.352;2023-07-31T09:56:42;23.00;99.90
10536;DHT22;5316;49.538;8.352;2023-07-31T09:59:12;23.10;99.90
10536;DHT22;5316;49.538;8.352;2023-07-31T10:01:42;23.10;99.90
10536;DHT22;5316;49.538;8.352;2023-07-31T10:04:12;23.10;99.90
10536;DHT22;5316;49.538;8.352;2023-07-31T10:06:43;23.20;1.00
10536;DHT22;5316;49.538;8.352;2023-07-31T10:09:15;23.30;1.00
10536;DHT22;5316;49.538;8.352;2023-07-31T10:11:47;23.30;99.90
10536;DHT22;5316;49.538;8.352;2023-07-31T10:14:18;23.30;1.00
10536;DHT22;5316;49.538;8.352;2023-07-31T10:16:48;23.40;1.00
10536;DHT22;5316;49.538;8.352;2023-07-31T10:19:16;23.30;99.90
10536;DHT22;5316;49.538;8.352;2023-07-31T10:21:44;23.20;99.90
10536;DHT22;5316;49.538;8.352;2023-07-31T10:24:15;23.40;99.90
10536;DHT22;5316;49.538;8.352;2023-07-31T10:26:45;23.40;99.90
10536;DHT22;5316;49.538;8.352;2023-07-31T10:29:15;23.40;99.90
10536;DHT22;5316;49.538;8.352;2023-07-31T10:31:44;23.50;99.90
10536;DHT22;5316;49.538;8.352;2023-07-31T10:34:13;23.30;99.90
10536;DHT22;5316;49.538;8.352;2023-07-31T10:36:40;23.40;99.90
10536;DHT22;5316;49.538;8.352;2023-07-31T10:39:34;23.50;99.90
10536;DHT22;5316;49.538;8.352;2023-07-31T10:42:10;23.60;1.00
10536;DHT22;5316;49.538;8.352;2023-07-31T10:55:30;23.60;1.00
10536;DHT22;5316;49.538;8.352;2023-07-31T10:58:12;23.60;1.00
10536;DHT22;5316;49.538;8.352;2023-07-31T11:00:44;23.60;1.00
10536;DHT22;5316;49.538;8.352;2023-07-31T11:03:13;23.60;99.90
10536;DHT22;5316;49.538;8.352;2023-07-31T11:05:51;23.60;1.00
10536;DHT22;5316;49.538;8.352;2023-07-31T11:08:27;23.60;1.00
10536;DHT22;5316;49.538;8.352;2023-07-31T11:11:09;23.60;1.00
10536;DHT22;5316;49.538;8.352;2023-07-31T11:13:53;23.50;8.10
10536;DHT22;5316;49.538;8.352;2023-07-31T11:16:23;23.40;99.90
10536;DHT22;5316;49.538;8.352;2023-07-31T11:18:51;23.40;7.80
10536;DHT22;5316;49.538;8.352;2023-07-31T11:21:20;23.40;99.90
10536;DHT22;5316;49.538;8.352;2023-07-31T11:23:48;23.40;99.90
10536;DHT22;5316;49.538;8.352;2023-07-31T11:26:17;23.30;99.90
10536;DHT22;5316;49.538;8.352;2023-07-31T11:28:46;23.30;99.90
10536;DHT22;5316;49.538;8.352;2023-07-31T11:31:14;23.20;99.90
10536;DHT22;5316;49.538;8.352;2023-07-31T11:33:41;23.10;99.90
10536;DHT22;5316;49.538;8.352;2023-07-31T11:36:14;23.00;99.90
10536;DHT22;5316;49.538;8.352;2023-07-31T11:38:41;23.00;1.00
10536;DHT22;5316;49.538;8.352;2023-07-31T11:41:08;23.00;1.00
10536;DHT22;5316;49.538;8.352;2023-07-31T11:43:36;23.00;99.90
10536;DHT22;5316;49.538;8.352;2023-07-31T11:46:04;23.00;99.90
10536;DHT22;5316;49.538;8.352;2023-07-31T11:48:34;23.00;1.00
10536;DHT22;5316;49.538;8.352;2023-07-31T11:51:02;23.10;99.90
10536;DHT22;5316;49.538;8.352;2023-07-31T11:53:33;23.10;99.90
10536;DHT22;5316;49.538;8.352;2023-07-31T11:56:02;23.20;99.90
10536;DHT22;5316;49.538;8.352;2023-07-31T11:58:31;23.20;99.90
10536;DHT22;5316;49.538;8.352;2023-07-31T12:01:00;23.30;99.90
10536;DHT22;5316;49.538;8.352;2023-07-31T12:03:27;23.40;93.40
10536;DHT22;5316;49.538;8.352;2023-07-31T12:05:55;23.40;61.80
10536;DHT22;5316;49.538;8.352;2023-07-31T12:08:23;23.40;1.00
10536;DHT22;5316;49.538;8.352;2023-07-31T12:10:51;23.50;1.00
10536;DHT22;5316;49.538;8.352;2023-07-31T12:13:21;23.60;1.00
10536;DHT22;5316;49.538;8.352;2023-07-31T12:15:48;23.70;1.00
10536;DHT22;5316;49.538;8.352;2023-07-31T12:18:19;23.70;1.00
10536;DHT22;5316;49.538;8.352;2023-07-31T12:20:48;23.70;1.00
10536;DHT22;5316;49.538;8.352;2023-07-31T12:23:18;23.70;1.00
10536;DHT22;5316;49.538;8.352;2023-07-31T12:26:00;23.60;1.00
10536;DHT22;5316;49.538;8.352;2023-07-31T12:28:27;23.40;1.00
10536;DHT22;5316;49.538;8.352;2023-07-31T12:30:59;23.30;98.90
10536;DHT22;5316;49.538;8.352;2023-07-31T12:33:32;23.20;99.90
10536;DHT22;5316;49.538;8.352;2023-07-31T12:36:01;23.20;99.90
10536;DHT22;5316;49.538;8.352;2023-07-31T12:38:29;23.30;99.90
10536;DHT22;5316;49.538;8.352;2023-07-31T12:40:56;23.30;99.90
10536;DHT22;5316;49.538;8.352;2023-07-31T12:43:23;23.40;99.90
10536;DHT22;5316;49.538;8.352;2023-07-31T12:45:50;23.60;99.90
10536;DHT22;5316;49.538;8.352;2023-07-31T12:48:17;23.80;1.10
10536;DHT22;5316;49.538;8.352;2023-07-31T12:50:45;24.00;1.00
10536;DHT22;5316;49.538;8.352;2023-07-31T12:53:12;24.10;1.00
10536;DHT22;5316;49.538;8.352;2023-07-31T12:55:39;24.30;1.00
10536;DHT22;5316;49.538;8.352;2023-07-31T12:58:06;24.50;1.00
10536;DHT22;5316;49.538;8.352;2023-07-31T13:00:33;24.60;99.90
10536;DHT22;5316;49.538;8.352;2023-07-31T13:03:00;24.70;99.90
10536;DHT22;5316;49.538;8.352;2023-07-31T13:05:28;24.70;99.90
10536;DHT22;5316;49.538;8.352;2023-07-31T13:07:56;24.80;99.90
10536;DHT22;5316;49.538;8.352;2023-07-31T13:10:24;24.70;99.90
10536;DHT22;5316;49.538;8.352;2023-07-31T13:12:52;24.70;99.90
10536;DHT22;5316;49.538;8.352;2023-07-31T13:15:19;24.70;1.00
10536;DHT22;5316;49.538;8.352;2023-07-31T13:17:46;24.70;1.00
10536;DHT22;5316;49.538;8.352;2023-07-31T13:20:13;24.50;1.00
10536;DHT22;5316;49.538;8.352;2023-07-31T13:22:40;24.40;1.00
10536;DHT22;5316;49.538;8.352;2023-07-31T13:25:09;24.40;32.00
10536;DHT22;5316;49.538;8.352;2023-07-31T13:27:36;24.50;20.20
10536;DHT22;5316;49.538;8.352;2023-07-31T13:30:03;24.50;99.90
10536;DHT22;5316;49.538;8.352;2023-07-31T13:32:31;24.40;1.00
10536;DHT22;5316;49.538;8.352;2023-07-31T13:34:58;24.20;99.90
10536;DHT22;5316;49.538;8.352;2023-07-31T13:37:25;24.20;99.90
10536;DHT22;5316;49.538;8.352;2023-07-31T13:39:52;24.10;99.90
10536;DHT22;5316;49.538;8.352;2023-07-31T13:42:21;24.00;1.00
10536;DHT22;5316;49.538;8.352;2023-07-31T13:44:48;24.00;1.00
10536;DHT22;5316;49.538;8.352;2023-07-31T13:47:15;24.00;1.00
10536;DHT22;5316;49.538;8.352;2023-07-31T13:49:41;23.90;1.00
10536;DHT22;5316;49.538;8.352;2023-07-31T13:52:09;23.90;1.00
10536;DHT22;5316;49.538;8.352;2023-07-31T13:54:36;23.80;1.00
10536;DHT22;5316;49.538;8.352;2023-07-31T13:57:04;23.70;1.00
10536;DHT22;5316;49.538;8.352;2023-07-31T13:59:33;23.60;77.80
10536;DHT22;5316;49.538;8.352;2023-07-31T14:01:59;23.60;99.90
10536;DHT22;5316;49.538;8.352;2023-07-31T14:04:26;23.50;99.90
10536;DHT22;5316;49.538;8.352;2023-07-31T14:06:54;23.40;99.90
10536;DHT22;5316;49.538;8.352;2023-07-31T14:09:22;23.50;99.90
10536;DHT22;5316;49.538;8.352;2023-07-31T14:11:49;23.50;1.00
10536;DHT22;5316;49.538;8.352;2023-07-31T14:14:16;23.50;99.90
10536;DHT22;5316;49.538;8.352;2023-07-31T14:16:44;23.50;99.90
10536;DHT22;5316;49.538;8.352;2023-07-31T14:19:13;23.40;99.90
10536;DHT22;5316;49.538;8.352;2023-07-31T14:21:42;23.60;1.00
10536;DHT22;5316;49.538;8.352;2023-07-31T14:24:09;23.80;1.00
10536;DHT22;5316;49.538;8.352;2023-07-31T14:26:36;23.80;1.00
10536;DHT22;5316;49.538;8.352;2023-07-31T14:29:03;23.80;99.90
10536;DHT22;5316;49.538;8.352;2023-07-31T14:31:30;24.00;99.90
10536;DHT22;5316;49.538;8.352;2023-07-31T14:33:58;24.00;1.00
10536;DHT22;5316;49.538;8.352;2023-07-31T14:36:25;23.90;1.00
10536;DHT22;5316;49.538;8.352;2023-07-31T14:38:52;23.90;81.70
10536;DHT22;5316;49.538;8.352;2023-07-31T14:41:19;23.60;99.90
10536;DHT22;5316;49.538;8.352;2023-07-31T14:43:52;23.60;1.00
10536;DHT22;5316;49.538;8.352;2023-07-31T14:46:18;23.50;1.00
10536;DHT22;5316;49.538;8.352;2023-07-31T14:48:46;23.40;19.80
10536;DHT22;5316;49.538;8.352;2023-07-31T14:51:15;23.30;23.40
10536;DHT22;5316;49.538;8.352;2023-07-31T14:53:43;23.40;82.10
10536;DHT22;5316;49.538;8.352;2023-07-31T14:56:10;23.40;99.90
10536;DHT22;5316;49.538;8.352;2023-07-31T14:58:36;23.40;99.90
10536;DHT22;5316;49.538;8.352;2023-07-31T15:01:03;23.40;99.90
10536;DHT22;5316;49.538;8.352;2023-07-31T15:03:30;23.40;1.00
10536;DHT22;5316;49.538;8.352;2023-07-31T15:05:57;23.50;14.90
10536;DHT22;5316;49.538;8.352;2023-07-31T15:08:25;23.50;1.00
10536;DHT22;5316;49.538;8.352;2023-07-31T15:10:54;23.60;99.90
10536;DHT22;5316;49.538;8.352;2023-07-31T15:13:23;23.60;99.90
10536;DHT22;5316;49.538;8.352;2023-07-31T15:15:50;23.60;99.90
10536;DHT22;5316;49.538;8.352;2023-07-31T15:18:16;23.70;99.90
10536;DHT22;5316;49.538;8.352;2023-07-31T15:20:43;23.70;99.90
10536;DHT22;5316;49.538;8.352;2023-07-31T15:23:10;23.80;1.00
10536;DHT22;5316;49.538;8.352;2023-07-31T15:25:38;23.90;99.90
10536;DHT22;5316;49.538;8.352;2023-07-31T15:28:05;23.80;99.90
10536;DHT22;5316;49.538;8.352;2023-07-31T15:30:32;23.70;99.90
10536;DHT22;5316;49.538;8.352;2023-07-31T15:32:59;23.80;1.00
10536;DHT22;5316;49.538;8.352;2023-07-31T15:35:26;23.80;99.90
10536;DHT22;5316;49.538;8.352;2023-07-31T15:37:53;23.80;1.00
10536;DHT22;5316;49.538;8.352;2023-07-31T15:40:20;23.80;1.00
10536;DHT22;5316;49.538;8.352;2023-07-31T15:42:48;23.80;99.90
10536;DHT22;5316;49.538;8.352;2023-07-31T15:45:15;23.80;99.90
10536;DHT22;5316;49.538;8.352;2023-07-31T15:47:42;23.90;99.90
10536;DHT22;5316;49.538;8.352;2023-07-31T15:50:08;23.90;99.90
10536;DHT22;5316;49.538;8.352;2023-07-31T15:52:35;24.00;99.90
10536;DHT22;5316;49.538;8.352;2023-07-31T15:55:03;23.90;99.90
10536;DHT22;5316;49.538;8.352;2023-07-31T15:57:30;23.80;99.90
10536;DHT22;5316;49.538;8.352;2023-07-31T15:59:58;23.70;1.00
10536;DHT22;5316;49.538;8.352;2023-07-31T16:02:25;23.70;4.70
10536;DHT22;5316;49.538;8.352;2023-07-31T16:04:52;23.70;42.00
10536;DHT22;5316;49.538;8.352;2023-07-31T16:07:21;23.70;99.90
10536;DHT22;5316;49.538;8.352;2023-07-31T16:09:49;23.60;99.90
10536;DHT22;5316;49.538;8.352;2023-07-31T16:12:16;23.60;99.90
10536;DHT22;5316;49.538;8.352;2023-07-31T16:14:42;23.50;1.00
10536;DHT22;5316;49.538;8.352;2023-07-31T16:17:11;23.40;1.00
10536;DHT22;5316;49.538;8.352;2023-07-31T16:19:37;23.20;99.90
10536;DHT22;5316;49.538;8.352;2023-07-31T16:22:05;23.10;99.90
10536;DHT22;5316;49.538;8.352;2023-07-31T16:24:32;23.10;99.90
10536;DHT22;5316;49.538;8.352;2023-07-31T16:26:59;23.10;99.90
10536;DHT22;5316;49.538;8.352;2023-07-31T16:29:36;23.10;99.90
10536;DHT22;5316;49.538;8.352;2023-07-31T16:32:03;23.10;1.00
10536;DHT22;5316;49.538;8.352;2023-07-31T16:34:31;23.10;1.00
10536;DHT22;5316;49.538;8.352;2023-07-31T16:36:58;23.00;1.00
10536;DHT22;5316;49.538;8.352;2023-07-31T16:39:25;22.90;1.00
10536;DHT22;5316;49.538;8.352;2023-07-31T16:41:52;22.90;1.00
10536;DHT22;5316;49.538;8.352;2023-07-31T16:44:19;22.90;15.20
10536;DHT22;5316;49.538;8.352;2023-07-31T16:46:46;22.80;93.00
10536;DHT22;5316;49.538;8.352;2023-07-31T16:49:13;22.80;99.90
10536;DHT22;5316;49.538;8.352;2023-07-31T16:51:41;22.80;99.90
10536;DHT22;5316;49.538;8.352;2023-07-31T16:54:08;22.80;99.90
10536;DHT22;5316;49.538;8.352;2023-07-31T16:56:35;22.80;99.90
10536;DHT22;5316;49.538;8.352;2023-07-31T16:59:02;22.70;99.90
10536;DHT22;5316;49.538;8.352;2023-07-31T17:01:29;22.70;99.90
10536;DHT22;5316;49.538;8.352;2023-07-31T17:03:57;22.70;99.90
10536;DHT22;5316;49.538;8.352;2023-07-31T17:06:25;22.70;99.90
10536;DHT22;5316;49.538;8.352;2023-07-31T17:08:54;22.70;99.90
10536;DHT22;5316;49.538;8.352;2023-07-31T17:11:23;22.70;99.90
10536;DHT22;5316;49.538;8.352;2023-07-31T17:13:50;22.70;99.90
10536;DHT22;5316;49.538;8.352;2023-07-31T17:16:18;22.60;99.90
10536;DHT22;5316;49.538;8.352;2023-07-31T17:18:45;22.50;99.90
10536;DHT22;5316;49.538;8.352;2023-07-31T17:21:13;22.40;99.90
10536;DHT22;5316;49.538;8.352;2023-07-31T17:23:40;22.40;99.90
10536;DHT22;5316;49.538;8.352;2023-07-31T17:26:08;22.30;99.90
10536;DHT22;5316;49.538;8.352;2023-07-31T17:28:37;22.20;99.90
10536;DHT22;5316;49.538;8.352;2023-07-31T17:31:05;22.00;99.90
10536;DHT22;5316;49.538;8.352;2023-07-31T17:33:33;21.90;99.90
10536;DHT22;5316;49.538;8.352;2023-07-31T17:36:00;21.80;99.90
10536;DHT22;5316;49.538;8.352;2023-07-31T17:38:27;21.60;1.00
10536;DHT22;5316;49.538;8.352;2023-07-31T17:41:20;21.50;1.00
10536;DHT22;5316;49.538;8.352;2023-07-31T17:43:49;21.50;1.00
10536;DHT22;5316;49.538;8.352;2023-07-31T17:46:20;21.20;1.00
10536;DHT22;5316;49.538;8.352;2023-07-31T17:48:47;21.20;1.00
10536;DHT22;5316;49.538;8.352;2023-07-31T17:51:14;21.10;1.00
10536;DHT22;5316;49.538;8.352;2023-07-31T17:53:41;21.00;1.00
10536;DHT22;5316;49.538;8.352;2023-07-31T17:56:08;20.90;1.00
10536;DHT22;5316;49.538;8.352;2023-07-31T17:58:37;20.90;1.00
10536;DHT22;5316;49.538;8.352;2023-07-31T18:01:03;20.80;1.00
10536;DHT22;5316;49.538;8.352;2023-07-31T18:03:30;20.70;1.00
10536;DHT22;5316;49.538;8.352;2023-07-31T18:05:57;20.70;1.00
10536;DHT22;5316;49.538;8.352;2023-07-31T18:08:24;20.80;1.00
10536;DHT22;5316;49.538;8.352;2023-07-31T18:10:52;20.80;1.00
10536;DHT22;5316;49.538;8.352;2023-07-31T18:13:19;20.90;1.00
10536;DHT22;5316;49.538;8.352;2023-07-31T18:15:48;20.90;1.00
10536;DHT22;5316;49.538;8.352;2023-07-31T18:18:14;20.70;1.00
10536;DHT22;5316;49.538;8.352;2023-07-31T18:20:44;20.80;1.00
10536;DHT22;5316;49.538;8.352;2023-07-31T18:23:12;20.70;1.00
10536;DHT22;5316;49.538;8.352;2023-07-31T18:25:40;20.70;1.00
10536;DHT22;5316;49.538;8.352;2023-07-31T18:28:07;20.70;1.00
10536;DHT22;5316;49.538;8.352;2023-07-31T18:30:35;20.70;1.00
10536;DHT22;5316;49.538;8.352;2023-07-31T18:33:03;20.70;1.00
10536;DHT22;5316;49.538;8.352;2023-07-31T18:35:30;20.70;1.00
10536;DHT22;5316;49.538;8.352;2023-07-31T18:37:57;20.70;1.00
10536;DHT22;5316;49.538;8.352;2023-07-31T18:40:24;20.70;1.00
10536;DHT22;5316;49.538;8.352;2023-07-31T18:42:51;20.70;1.00
10536;DHT22;5316;49.538;8.352;2023-07-31T18:45:19;20.70;1.00
10536;DHT22;5316;49.538;8.352;2023-07-31T18:47:46;20.60;1.00
10536;DHT22;5316;49.538;8.352;2023-07-31T18:50:14;20.60;1.00
10536;DHT22;5316;49.538;8.352;2023-07-31T18:52:41;20.50;1.00
10536;DHT22;5316;49.538;8.352;2023-07-31T18:55:09;20.40;1.00
10536;DHT22;5316;49.538;8.352;2023-07-31T18:57:36;20.30;1.00
10536;DHT22;5316;49.538;8.352;2023-07-31T19:00:04;20.30;1.00
10536;DHT22;5316;49.538;8.352;2023-07-31T19:02:31;20.20;1.00
10536;DHT22;5316;49.538;8.352;2023-07-31T19:04:58;20.20;1.00
10536;DHT22;5316;49.538;8.352;2023-07-31T19:07:29;20.30;1.00
10536;DHT22;5316;49.538;8.352;2023-07-31T19:09:56;20.00;1.00
10536;DHT22;5316;49.538;8.352;2023-07-31T19:12:25;20.10;1.00
10536;DHT22;5316;49.538;8.352;2023-07-31T19:14:52;20.20;1.00
10536;DHT22;5316;49.538;8.352;2023-07-31T19:17:19;20.20;1.00
10536;DHT22;5316;49.538;8.352;2023-07-31T19:19:46;20.20;1.00
10536;DHT22;5316;49.538;8.352;2023-07-31T19:22:13;20.30;1.00
10536;DHT22;5316;49.538;8.352;2023-07-31T19:24:42;20.30;1.00
10536;DHT22;5316;49.538;8.352;2023-07-31T19:27:09;20.30;1.00
10536;DHT22;5316;49.538;8.352;2023-07-31T19:29:37;20.30;1.00
10536;DHT22;5316;49.538;8.352;2023-07-31T19:32:05;20.50;1.00
10536;DHT22;5316;49.538;8.352;2023-07-31T19:34:32;20.40;1.00
10536;DHT22;5316;49.538;8.352;2023-07-31T19:36:59;20.40;1.00
10536;DHT22;5316;49.538;8.352;2023-07-31T19:39:26;20.40;1.00
10536;DHT22;5316;49.538;8.352;2023-07-31T19:41:56;20.50;1.00
10536;DHT22;5316;49.538;8.352;2023-07-31T19:44:23;20.40;1.00
10536;DHT22;5316;49.538;8.352;2023-07-31T19:46:50;20.50;1.00
10536;DHT22;5316;49.538;8.352;2023-07-31T19:49:17;20.50;1.00
10536;DHT22;5316;49.538;8.352;2023-07-31T19:51:44;20.60;1.00
10536;DHT22;5316;49.538;8.352;2023-07-31T19:54:11;20.60;1.00
10536;DHT22;5316;49.538;8.352;2023-07-31T19:56:39;20.50;1.00
10536;DHT22;5316;49.538;8.352;2023-07-31T19:59:08;20.60;1.00
10536;DHT22;5316;49.538;8.352;2023-07-31T20:01:35;20.60;1.00
10536;DHT22;5316;49.538;8.352;2023-07-31T20:04:03;20.60;1.00
10536;DHT22;5316;49.538;8.352;2023-07-31T20:06:29;20.70;1.00
10536;DHT22;5316;49.538;8.352;2023-07-31T20:08:56;20.60;1.00
10536;DHT22;5316;49.538;8.352;2023-07-31T20:11:24;20.50;1.00
10536;DHT22;5316;49.538;8.352;2023-07-31T20:13:51;20.40;1.00
10536;DHT22;5316;49.538;8.352;2023-07-31T20:16:20;20.40;1.00
10536;DHT22;5316;49.538;8.352;2023-07-31T20:18:47;20.50;1.00
10536;DHT22;5316;49.538;8.352;2023-07-31T20:21:16;20.50;1.00
10536;DHT22;5316;49.538;8.352;2023-07-31T20:23:43;20.50;1.00
10536;DHT22;5316;49.538;8.352;2023-07-31T20:26:10;20.50;1.00
10536;DHT22;5316;49.538;8.352;2023-07-31T20:28:37;20.50;1.00
10536;DHT22;5316;49.538;8.352;2023-07-31T20:31:04;20.40;1.00
10536;DHT22;5316;49.538;8.352;2023-07-31T20:33:32;20.40;1.00
10536;DHT22;5316;49.538;8.352;2023-07-31T20:35:59;20.30;1.00
10536;DHT22;5316;49.538;8.352;2023-07-31T20:38:26;20.20;1.00
10536;DHT22;5316;49.538;8.352;2023-07-31T20:40:53;20.10;1.00
10536;DHT22;5316;49.538;8.352;2023-07-31T20:43:20;20.00;1.00
10536;DHT22;5316;49.538;8.352;2023-07-31T20:45:47;20.00;1.00
10536;DHT22;5316;49.538;8.352;2023-07-31T20:48:15;20.20;1.00
10536;DHT22;5316;49.538;8.352;2023-07-31T20:50:43;20.20;1.00
10536;DHT22;5316;49.538;8.352;2023-07-31T20:53:10;20.20;1.00
10536;DHT22;5316;49.538;8.352;2023-07-31T20:55:38;20.20;1.00
10536;DHT22;5316;49.538;8.352;2023-07-31T20:58:05;20.20;1.00
10536;DHT22;5316;49.538;8.352;2023-07-31T21:00:32;20.20;1.00
10536;DHT22;5316;49.538;8.352;2023-07-31T21:02:59;20.20;1.00
10536;DHT22;5316;49.538;8.352;2023-07-31T21:05:26;20.20;1.00
10536;DHT22;5316;49.538;8.352;2023-07-31T21:07:54;20.20;1.00
10536;DHT22;5316;49.538;8.352;2023-07-31T21:10:21;20.20;1.00
10536;DHT22;5316;49.538;8.352;2023-07-31T21:12:49;20.10;1.00
10536;DHT22;5316;49.538;8.352;2023-07-31T21:15:17;20.10;1.00
10536;DHT22;5316;49.538;8.352;2023-07-31T21:17:44;20.00;1.00
10536;DHT22;5316;49.538;8.352;2023-07-31T21:20:11;20.00;1.00
10536;DHT22;5316;49.538;8.352;2023-07-31T21:22:38;20.00;1.00
10536;DHT22;5316;49.538;8.352;2023-07-31T21:25:07;20.00;1.00
10536;DHT22;5316;49.538;8.352;2023-07-31T21:27:34;20.00;1.00
10536;DHT22;5316;49.538;8.352;2023-07-31T21:30:04;20.10;1.00
10536;DHT22;5316;49.538;8.352;2023-07-31T21:32:32;20.20;1.00
10536;DHT22;5316;49.538;8.352;2023-07-31T21:34:59;20.30;1.00
10536;DHT22;5316;49.538;8.352;2023-07-31T21:37:26;20.40;1.00
10536;DHT22;5316;49.538;8.352;2023-07-31T21:39:53;20.40;1.00
10536;DHT22;5316;49.538;8.352;2023-07-31T21:42:21;20.40;1.00
10536;DHT22;5316;49.538;8.352;2023-07-31T21:44:48;20.40;1.00
10536;DHT22;5316;49.538;8.352;2023-07-31T21:47:15;20.50;1.00
10536;DHT22;5316;49.538;8.352;2023-07-31T21:49:42;20.70;1.00
10536;DHT22;5316;49.538;8.352;2023-07-31T21:52:09;20.70;1.00
10536;DHT22;5316;49.538;8.352;2023-07-31T21:54:36;20.60;1.00
10536;DHT22;5316;49.538;8.352;2023-07-31T21:57:04;20.60;1.00
10536;DHT22;5316;49.538;8.352;2023-07-31T21:59:32;20.60;1.00
10536;DHT22;5316;49.538;8.352;2023-07-31T22:02:01;20.60;1.00
10536;DHT22;5316;49.538;8.352;2023-07-31T22:04:35;20.60;1.00
10536;DHT22;5316;49.538;8.352;2023-07-31T22:07:03;20.70;1.00
10536;DHT22;5316;49.538;8.352;2023-07-31T22:09:30;20.70;1.00
10536;DHT22;5316;49.538;8.352;2023-07-31T22:11:57;20.70;1.00
10536;DHT22;5316;49.538;8.352;2023-07-31T22:14:24;20.70;1.00
10536;DHT22;5316;49.538;8.352;2023-07-31T22:16:53;20.60;1.00
10536;DHT22;5316;49.538;8.352;2023-07-31T22:19:20;20.50;1.00
10536;DHT22;5316;49.538;8.352;2023-07-31T22:21:47;20.40;1.00
10536;DHT22;5316;49.538;8.352;2023-07-31T22:24:14;20.30;1.00
10536;DHT22;5316;49.538;8.352;2023-07-31T22:26:41;20.30;1.00
10536;DHT22;5316;49.538;8.352;2023-07-31T22:29:10;20.20;1.00
10536;DHT22;5316;49.538;8.352;2023-07-31T22:31:36;20.00;1.00
10536;DHT22;5316;49.538;8.352;2023-07-31T22:34:05;19.90;1.00
10536;DHT22;5316;49.538;8.352;2023-07-31T22:36:32;19.90;1.00
10536;DHT22;5316;49.538;8.352;2023-07-31T22:38:59;20.00;1.00
10536;DHT22;5316;49.538;8.352;2023-07-31T22:41:26;19.90;1.00
10536;DHT22;5316;49.538;8.352;2023-07-31T22:43:55;19.90;1.00
10536;DHT22;5316;49.538;8.352;2023-07-31T22:46:45;19.90;1.00
10536;DHT22;5316;49.538;8.352;2023-07-31T22:49:18;19.80;1.00
10536;DHT22;5316;49.538;8.352;2023-07-31T22:51:46;20.00;1.00
10536;DHT22;5316;49.538;8.352;2023-07-31T22:54:14;20.00;1.00
10536;DHT22;5316;49.538;8.352;2023-07-31T22:56:45;20.00;1.00
10536;DHT22;5316;49.538;8.352;2023-07-31T22:59:14;20.00;1.00
10536;DHT22;5316;49.538;8.352;2023-07-31T23:01:45;19.90;1.00
10536;DHT22;5316;49.538;8.352;2023-07-31T23:04:12;19.90;1.00
10536;DHT22;5316;49.538;8.352;2023-07-31T23:06:41;19.90;1.00
10536;DHT22;5316;49.538;8.352;2023-07-31T23:09:08;19.90;1.00
10536;DHT22;5316;49.538;8.352;2023-07-31T23:11:35;20.00;1.00
10536;DHT22;5316;49.538;8.352;2023-07-31T23:14:02;20.10;1.00
10536;DHT22;5316;49.538;8.352;2023-07-31T23:16:29;20.00;1.00
10536;DHT22;5316;49.538;8.352;2023-07-31T23:18:56;20.00;1.00
10536;DHT22;5316;49.538;8.352;2023-07-31T23:21:23;20.00;1.00
10536;DHT22;5316;49.538;8.352;2023-07-31T23:23:52;19.90;1.00
10536;DHT22;5316;49.538;8.352;2023-07-31T23:26:19;19.80;1.00
10536;DHT22;5316;49.538;8.352;2023-07-31T23:28:49;19.80;1.00
10536;DHT22;5316;49.538;8.352;2023-07-31T23:31:15;19.70;1.00
10536;DHT22;5316;49.538;8.352;2023-07-31T23:33:42;19.70;1.00
10536;DHT22;5316;49.538;8.352;2023-07-31T23:36:09;19.70;1.00
10536;DHT22;5316;49.538;8.352;2023-07-31T23:38:36;19.70;1.00
10536;DHT22;5316;49.538;8.352;2023-07-31T23:41:05;19.70;1.00
10536;DHT22;5316;49.538;8.352;2023-07-31T23:43:32;19.70;1.00
10536;DHT22;5316;49.538;8.352;2023-07-31T23:45:58;19.80;1.00
10536;DHT22;5316;49.538;8.352;2023-07-31T23:48:25;19.90;1.00
10536;DHT22;5316;49.538;8.352;2023-07-31T23:50:54;19.90;1.00
10536;DHT22;5316;49.538;8.352;2023-07-31T23:53:21;19.80;1.00
10536;DHT22;5316;49.538;8.352;2023-07-31T23:55:48;19.70;1.00
10536;DHT22;5316;49.538;8.352;2023-07-31T23:58:17;19.70;1.00
